Norwalk, Connecticut
Current Conditions -  °F | °C
As of 1:52 AM on Saturday 20 Dec 2014 (Local Time) from KBDR Reporting Station
Overcast Overcast  
Wind Chill: 26°   Ceiling: 2800
Heat Index: 31°   Visibility: 10mi
Dew Point: 22°   Wind: 5mph
Humidity: 69%   Direction: 340°NNW
Pressure: 30.2"   Gusts: NA
Location:  41.11°N, 73.41°W
Report Text: KBDR 200652Z AUTO 34004KT 10SM OVC028 M01/M06 A3020 RMK AO2 SLP225 T10061056
Loading
Personal Weather Stations






























Interactive Weather Map New forecast layout! Learn more

10-Day Weather Forecast

Advertisements
Track Severe Weather on mobile